Time;durP1;ratioP1;P1;durP2;ratioP2;P2;SDS_P1;SDS_P2;PMS_P1;PMS_P2;Temp;Humidity;BMP_temperature;BMP_pressure;BME280_temperature;BME280_humidity;BME280_pressure;Samples;Min_cycle;Max_cycle;Signal;HPM_P1;HPM_P2
2022/03/02 00:00:47;;;;;;;10.00;7.28;;;;;;;-4.82;99.38;93634.00;2097990;28;20048;-82
2022/03/02 00:01:50;;;;;;;10.27;6.70;;;;;;;-4.90;100.00;93636.59;2089767;28;20032;-81
2022/03/02 00:02:51;;;;;;;9.55;7.07;;;;;;;-4.92;100.00;93639.50;2089720;28;20044;-81
2022/03/02 00:03:52;;;;;;;9.68;7.05;;;;;;;-4.95;100.00;93636.75;2098027;28;20025;-80
2022/03/02 00:04:53;;;;;;;9.00;7.22;;;;;;;-5.03;100.00;93629.69;2098165;28;20028;-84
2022/03/02 00:05:54;;;;;;;10.40;7.65;;;;;;;-5.13;100.00;93628.91;2098032;28;20043;-81
2022/03/02 00:06:55;;;;;;;10.00;6.85;;;;;;;-5.07;100.00;93632.13;2089720;28;20056;-81
2022/03/02 00:07:56;;;;;;;10.98;7.65;;;;;;;-5.01;100.00;93637.97;2106410;28;20027;-81
2022/03/02 00:08:57;;;;;;;11.25;7.40;;;;;;;-4.96;100.00;93636.00;2110057;28;20113;-82
2022/03/02 00:09:58;;;;;;;8.93;6.82;;;;;;;-4.94;100.00;93639.03;2089634;28;20807;-82
2022/03/02 00:10:59;;;;;;;8.70;6.85;;;;;;;-4.99;100.00;93628.00;2097723;28;20024;-83
2022/03/02 00:12:01;;;;;;;10.20;7.40;;;;;;;-4.90;100.00;93626.19;2114374;28;20043;-82
2022/03/02 00:13:02;;;;;;;13.02;7.53;;;;;;;-4.95;100.00;93626.31;2110024;27;20092;-80
2022/03/02 00:14:05;;;;;;;10.40;7.20;;;;;;;-4.94;100.00;93617.44;2123325;27;20059;-80
2022/03/02 00:15:06;;;;;;;11.25;7.70;;;;;;;-4.97;100.00;93618.78;2114730;28;20123;-83
2022/03/02 00:16:09;;;;;;;9.73;6.90;;;;;;;-5.00;100.00;93611.59;2097876;28;20024;-83
2022/03/02 00:17:10;;;;;;;10.52;7.75;;;;;;;-4.97;100.00;93621.41;2098456;28;20031;-82
2022/03/02 00:18:11;;;;;;;11.05;7.25;;;;;;;-5.04;100.00;93623.72;2097836;28;20028;-82
2022/03/02 00:19:12;;;;;;;10.75;7.20;;;;;;;-4.99;100.00;93620.19;2089753;28;20021;-82
2022/03/02 00:20:14;;;;;;;11.45;6.88;;;;;;;-4.92;100.00;93618.63;2106303;28;20439;-82
2022/03/02 00:21:15;;;;;;;9.70;7.00;;;;;;;-4.85;100.00;93618.19;2097979;28;20382;-82
2022/03/02 00:22:16;;;;;;;10.48;7.03;;;;;;;-4.86;100.00;93619.28;2100844;28;20012;-81
2022/03/02 00:23:17;;;;;;;9.93;7.50;;;;;;;-4.94;100.00;93615.59;2106443;28;20024;-82
2022/03/02 00:24:20;;;;;;;10.90;7.32;;;;;;;-4.65;100.00;93614.22;2114739;28;20062;-80
2022/03/02 00:25:21;;;;;;;11.52;7.35;;;;;;;-4.62;100.00;93616.19;2106513;28;20020;-81
2022/03/02 00:26:22;;;;;;;9.95;7.40;;;;;;;-4.66;100.00;93616.03;2114360;28;20373;-81
2022/03/02 00:27:23;;;;;;;10.80;7.57;;;;;;;-4.85;100.00;93618.19;2108598;28;20050;-81
2022/03/02 00:28:24;;;;;;;10.75;7.25;;;;;;;-4.87;100.00;93615.16;2097814;28;20027;-83
2022/03/02 00:29:26;;;;;;;10.20;6.72;;;;;;;-4.74;100.00;93621.25;2097731;28;20557;-84
2022/03/02 00:30:28;;;;;;;12.00;7.47;;;;;;;-4.78;100.00;93618.53;2098163;28;20051;-82
2022/03/02 00:31:29;;;;;;;10.35;7.20;;;;;;;-4.84;100.00;93620.50;2097852;28;20024;-80
2022/03/02 00:32:31;;;;;;;12.25;7.25;;;;;;;-4.82;100.00;93628.78;2089309;28;20078;-83
2022/03/02 00:33:32;;;;;;;11.73;7.38;;;;;;;-4.83;100.00;93613.44;2089388;28;20047;-82
2022/03/02 00:34:32;;;;;;;9.13;6.55;;;;;;;-4.83;100.00;93619.44;2089459;28;20059;-82
2022/03/02 00:35:34;;;;;;;9.13;7.15;;;;;;;-4.70;100.00;93617.72;2089806;28;20025;-80
2022/03/02 00:36:36;;;;;;;11.02;7.85;;;;;;;-4.62;100.00;93618.81;2106223;28;20065;-82
2022/03/02 00:37:37;;;;;;;11.57;6.82;;;;;;;-4.64;100.00;93621.72;2097778;28;20024;-81
2022/03/02 00:38:38;;;;;;;9.05;6.88;;;;;;;-4.77;100.00;93621.88;2081505;28;20033;-83
2022/03/02 00:39:42;;;;;;;9.10;6.88;;;;;;;-4.74;100.00;93619.44;2081363;28;20021;-81
2022/03/02 00:40:43;;;;;;;9.88;6.85;;;;;;;-4.73;100.00;93618.34;2096366;28;20012;-82
2022/03/02 00:41:44;;;;;;;12.05;7.50;;;;;;;-4.68;100.00;93618.19;2089381;28;20139;-81
2022/03/02 00:42:46;;;;;;;10.77;7.20;;;;;;;-4.58;100.00;93617.88;2081374;28;20045;-84
2022/03/02 00:43:48;;;;;;;10.95;6.93;;;;;;;-4.67;100.00;93618.97;2095678;28;20035;-83
2022/03/02 00:44:49;;;;;;;9.50;7.43;;;;;;;-4.76;100.00;93620.81;2105935;28;20500;-82
2022/03/02 00:45:50;;;;;;;9.88;7.03;;;;;;;-4.82;100.00;93613.16;2097757;28;20085;-83
2022/03/02 00:46:51;;;;;;;10.10;6.57;;;;;;;-4.78;100.00;93623.72;2089579;28;20044;-84
2022/03/02 00:47:53;;;;;;;10.38;7.00;;;;;;;-4.78;100.00;93617.72;2089460;28;20024;-81
2022/03/02 00:48:54;;;;;;;9.32;7.03;;;;;;;-4.72;100.00;93608.69;2097750;28;20107;-82
2022/03/02 00:49:55;;;;;;;11.93;6.80;;;;;;;-4.66;100.00;93610.81;2105848;28;20061;-82
2022/03/02 00:50:57;;;;;;;12.43;7.07;;;;;;;-4.76;100.00;93611.13;2105687;28;20024;-85
2022/03/02 00:51:58;;;;;;;11.15;7.15;;;;;;;-4.73;100.00;93615.00;2105172;28;20023;-83
2022/03/02 00:53:00;;;;;;;10.88;7.03;;;;;;;-4.65;100.00;93614.22;2089254;28;20102;-82
2022/03/02 00:54:01;;;;;;;13.05;7.10;;;;;;;-4.70;100.00;93609.91;2081318;28;20088;-84
2022/03/02 00:55:03;;;;;;;11.55;7.38;;;;;;;-4.72;100.00;93606.84;2103086;28;20493;-83
2022/03/02 00:56:04;;;;;;;11.27;7.28;;;;;;;-4.72;100.00;93609.47;2105847;28;20062;-82
2022/03/02 00:57:07;;;;;;;9.07;7.05;;;;;;;-4.72;100.00;93608.69;2097686;28;20477;-82
2022/03/02 00:58:08;;;;;;;11.32;7.72;;;;;;;-4.75;100.00;93609.28;2114534;28;20104;-82
2022/03/02 00:59:09;;;;;;;9.68;6.90;;;;;;;-4.74;100.00;93603.78;2097512;28;20055;-81
2022/03/02 01:00:11;;;;;;;10.00;7.30;;;;;;;-4.69;100.00;93602.88;2097513;28;20055;-81
2022/03/02 01:01:13;;;;;;;11.13;7.40;;;;;;;-4.67;100.00;93605.94;2105661;28;20107;-84
2022/03/02 01:02:14;;;;;;;10.32;7.30;;;;;;;-4.62;100.00;93595.34;2097559;28;20016;-82
2022/03/02 01:03:15;;;;;;;13.20;7.28;;;;;;;-4.48;100.00;93595.16;2088993;28;20520;-82
2022/03/02 01:04:16;;;;;;;10.57;7.55;;;;;;;-4.57;100.00;93597.78;2081140;28;20095;-83
2022/03/02 01:05:17;;;;;;;9.02;6.90;;;;;;;-4.66;100.00;93595.19;2089324;28;20763;-84
2022/03/02 01:06:18;;;;;;;11.35;7.03;;;;;;;-4.64;100.00;93592.28;2100697;28;20030;-84
2022/03/02 01:07:19;;;;;;;12.25;7.28;;;;;;;-4.58;100.00;93589.19;2105929;28;20547;-81
2022/03/02 01:08:20;;;;;;;11.00;7.55;;;;;;;-4.59;100.00;93585.06;2097484;28;20329;-84
2022/03/02 01:09:21;;;;;;;12.63;7.82;;;;;;;-4.55;100.00;93590.44;2089202;28;20021;-83
2022/03/02 01:10:22;;;;;;;12.93;7.20;;;;;;;-4.67;100.00;93585.06;2089420;28;20017;-81
2022/03/02 01:11:24;;;;;;;11.00;7.60;;;;;;;-4.58;100.00;93589.19;2101762;28;20496;-82
2022/03/02 01:12:25;;;;;;;10.98;7.63;;;;;;;-4.56;100.00;93579.22;2097377;28;20505;-82
2022/03/02 01:13:27;;;;;;;12.70;7.97;;;;;;;-4.61;100.00;93589.03;2105841;28;20027;-84
2022/03/02 01:14:28;;;;;;;10.45;7.55;;;;;;;-4.64;100.00;93579.25;2114180;28;20050;-82
2022/03/02 01:15:29;;;;;;;8.98;6.93;;;;;;;-4.64;100.00;93576.63;2097517;28;20020;-84
2022/03/02 01:16:30;;;;;;;11.40;7.35;;;;;;;-4.64;100.00;93581.84;2097550;28;20020;-84
2022/03/02 01:17:31;;;;;;;10.00;7.30;;;;;;;-4.61;100.00;93581.22;2089461;28;20024;-82
2022/03/02 01:18:32;;;;;;;11.13;7.72;;;;;;;-4.60;100.00;93580.91;2105956;28;20019;-83
2022/03/02 01:19:33;;;;;;;10.20;7.32;;;;;;;-4.58;100.00;93583.22;2105874;28;20111;-82
2022/03/02 01:20:34;;;;;;;10.02;7.35;;;;;;;-4.61;100.00;93589.81;2105935;28;20490;-84
2022/03/02 01:21:35;;;;;;;12.15;7.40;;;;;;;-4.59;100.00;93585.06;2097180;28;20032;-83
2022/03/02 01:22:36;;;;;;;10.05;7.30;;;;;;;-4.56;100.00;93581.06;2089251;28;20087;-81
2022/03/02 01:23:37;;;;;;;12.23;8.00;;;;;;;-4.58;100.00;93583.97;2097513;28;20107;-82
2022/03/02 01:24:39;;;;;;;10.90;7.30;;;;;;;-4.57;100.00;93585.50;2105989;28;20027;-81
2022/03/02 01:25:40;;;;;;;9.65;7.35;;;;;;;-4.59;100.00;93592.88;2097455;28;20020;-84
2022/03/02 01:26:41;;;;;;;10.82;7.57;;;;;;;-4.57;100.00;93582.91;2097250;28;20020;-81
2022/03/02 01:27:42;;;;;;;9.95;7.18;;;;;;;-4.57;100.00;93577.69;2111668;28;20196;-83
2022/03/02 01:28:42;;;;;;;11.52;7.50;;;;;;;-4.52;100.00;93574.16;2105777;28;20073;-82
2022/03/02 01:29:43;;;;;;;13.27;7.18;;;;;;;-4.57;100.00;93575.06;2097572;28;20496;-83
2022/03/02 01:30:44;;;;;;;12.82;8.63;;;;;;;-4.45;100.00;93574.44;2105799;28;20023;-82
2022/03/02 01:31:45;;;;;;;11.15;7.95;;;;;;;-4.55;100.00;93574.78;2114019;28;20027;-84
2022/03/02 01:32:46;;;;;;;10.65;7.35;;;;;;;-4.50;100.00;93569.41;2114287;28;20034;-82
2022/03/02 01:33:49;;;;;;;10.52;7.78;;;;;;;-4.52;100.00;93568.94;2106018;28;20028;-81
2022/03/02 01:34:50;;;;;;;10.80;7.05;;;;;;;-4.59;100.00;93566.81;2105969;28;20019;-82
2022/03/02 01:35:51;;;;;;;11.43;7.78;;;;;;;-4.49;100.00;93564.94;2105802;28;20024;-83
2022/03/02 01:36:52;;;;;;;13.57;8.02;;;;;;;-4.55;100.00;93559.13;2101755;28;20544;-82
2022/03/02 01:37:55;;;;;;;9.65;7.32;;;;;;;-4.55;100.00;93561.72;2097102;28;20112;-83
2022/03/02 01:38:56;;;;;;;10.77;7.30;;;;;;;-4.40;100.00;93561.22;2081393;28;20049;-84
2022/03/02 01:39:57;;;;;;;9.63;7.38;;;;;;;-4.40;100.00;93565.69;2080962;28;20060;-82
2022/03/02 01:40:58;;;;;;;12.73;7.50;;;;;;;-4.48;100.00;93559.41;2080789;28;20045;-81
2022/03/02 01:41:59;;;;;;;10.57;7.30;;;;;;;-4.58;100.00;93557.13;2080708;28;20160;-84
2022/03/02 01:43:00;;;;;;;15.65;7.93;;;;;;;-4.48;100.00;93559.41;2089111;28;20033;-81
2022/03/02 01:44:01;;;;;;;12.13;7.88;;;;;;;-4.59;100.00;93561.59;2105737;28;20024;-82
2022/03/02 01:45:04;;;;;;;11.95;7.60;;;;;;;-4.58;100.00;93551.91;2102346;28;20024;-82
2022/03/02 01:46:05;;;;;;;9.95;7.55;;;;;;;-4.33;100.00;93560.78;2097931;28;20024;-82
2022/03/02 01:47:07;;;;;;;9.48;7.90;;;;;;;-4.40;100.00;93555.25;2097068;28;20491;-83
2022/03/02 01:48:08;;;;;;;11.90;7.57;;;;;;;-4.41;100.00;93553.72;2097275;28;20043;-82
2022/03/02 01:49:09;;;;;;;10.90;7.53;;;;;;;-4.34;100.00;93549.56;2105638;28;20020;-82
2022/03/02 01:50:12;;;;;;;11.45;8.38;;;;;;;-4.39;100.00;93549.75;2114160;28;20031;-82
2022/03/02 01:51:13;;;;;;;10.20;7.45;;;;;;;-4.29;100.00;93548.63;2114001;28;20031;-81
2022/03/02 01:52:15;;;;;;;13.70;7.60;;;;;;;-4.12;100.00;93545.22;2103508;28;20388;-81
2022/03/02 01:53:16;;;;;;;11.20;6.90;;;;;;;-4.28;100.00;93550.16;2106042;28;20071;-81
2022/03/02 01:54:18;;;;;;;10.95;7.85;;;;;;;-4.40;100.00;93544.81;2097318;28;20495;-84
2022/03/02 01:55:19;;;;;;;12.98;7.55;;;;;;;-4.44;100.00;93543.91;2097349;28;20024;-83
2022/03/02 01:56:20;;;;;;;12.73;8.02;;;;;;;-4.40;100.00;93542.97;2089125;28;20021;-82
2022/03/02 01:57:21;;;;;;;12.35;7.55;;;;;;;-4.42;100.00;93549.59;2088993;28;20561;-83
2022/03/02 01:58:29;;;;;;;15.13;8.18;;;;;;;-4.46;100.00;93543.47;2101340;28;20081;-84
2022/03/02 01:59:30;;;;;;;12.32;8.02;;;;;;;-4.51;100.00;93551.44;2116904;27;20066;-84
2022/03/02 02:00:31;;;;;;;13.75;8.40;;;;;;;-4.50;100.00;93551.13;2101466;28;20020;-82
2022/03/02 02:01:33;;;;;;;12.10;7.72;;;;;;;-4.50;100.00;93545.16;2080764;28;20017;-83
2022/03/02 02:02:34;;;;;;;11.38;7.72;;;;;;;-4.44;100.00;93539.44;2088816;28;20013;-82
2022/03/02 02:03:35;;;;;;;10.82;8.00;;;;;;;-4.44;100.00;93543.91;2098416;28;20048;-83
2022/03/02 02:04:36;;;;;;;11.88;7.72;;;;;;;-4.48;100.00;93543.75;2097155;28;20024;-83
2022/03/02 02:05:37;;;;;;;17.35;8.00;;;;;;;-4.34;100.00;93544.34;2097315;28;20043;-81
2022/03/02 02:06:38;;;;;;;12.00;7.80;;;;;;;-4.32;100.00;93541.41;2097214;28;20024;-83
2022/03/02 02:07:41;;;;;;;12.98;8.50;;;;;;;-4.40;100.00;93540.38;2097142;28;20018;-82
2022/03/02 02:08:43;;;;;;;11.80;7.97;;;;;;;-4.50;100.00;93537.34;2114296;28;20378;-84
2022/03/02 02:09:44;;;;;;;14.43;8.60;;;;;;;-4.46;100.00;93540.84;2111153;28;20031;-83
2022/03/02 02:10:45;;;;;;;10.95;7.72;;;;;;;-4.38;100.00;93542.69;2105563;28;20028;-85
2022/03/02 02:11:46;;;;;;;10.10;7.65;;;;;;;-4.40;100.00;93544.81;2096933;28;20459;-85
2022/03/02 02:12:47;;;;;;;12.98;8.25;;;;;;;-4.55;100.00;93540.88;2099947;28;20078;-83
2022/03/02 02:13:48;;;;;;;11.70;7.97;;;;;;;-4.53;100.00;93536.09;2097096;28;20035;-84
2022/03/02 02:14:49;;;;;;;17.38;8.02;;;;;;;-4.59;100.00;93543.31;2093842;28;20052;-82
2022/03/02 02:15:50;;;;;;;12.75;8.18;;;;;;;-4.58;100.00;93536.25;2096427;28;20044;-85
2022/03/02 02:16:51;;;;;;;12.13;7.63;;;;;;;-4.51;100.00;93541.03;2105467;28;20133;-83
2022/03/02 02:17:52;;;;;;;13.13;7.82;;;;;;;-4.49;100.00;93542.22;2113928;28;20480;-81
2022/03/02 02:18:57;;;;;;;12.30;7.93;;;;;;;-4.51;100.00;93533.19;2097205;28;20554;-83
2022/03/02 02:19:58;;;;;;;12.50;7.90;;;;;;;-4.56;100.00;93528.91;2098077;28;20710;-83
2022/03/02 02:21:07;;;;;;;10.10;7.63;;;;;;;-4.58;100.00;93531.81;2097428;28;20071;-81
2022/03/02 02:22:08;;;;;;;11.23;8.32;;;;;;;-4.67;100.00;93528.47;2106634;28;20051;-81
2022/03/02 02:23:09;;;;;;;12.10;7.88;;;;;;;-4.65;100.00;93523.72;2105314;28;20024;-84
2022/03/02 02:24:10;;;;;;;12.23;8.48;;;;;;;-4.62;100.00;93523.06;2097025;28;20028;-83
2022/03/02 02:25:12;;;;;;;16.25;8.10;;;;;;;-4.67;100.00;93520.63;2088979;28;20021;-84
2022/03/02 02:26:13;;;;;;;12.75;8.82;;;;;;;-4.51;100.00;93527.97;2089118;28;20074;-84
2022/03/02 02:27:15;;;;;;;11.80;8.30;;;;;;;-4.57;100.00;93524.75;2081897;28;20028;-84
2022/03/02 02:28:21;;;;;;;11.13;7.97;;;;;;;-4.43;100.00;93529.81;2081106;28;20029;-83
2022/03/02 02:29:25;;;;;;;13.55;8.25;;;;;;;-4.50;100.00;93529.50;2097840;28;20021;-81
2022/03/02 02:30:26;;;;;;;13.57;8.40;;;;;;;-4.58;100.00;93521.38;2097905;28;20111;-83
2022/03/02 02:31:27;;;;;;;10.57;7.55;;;;;;;-4.68;100.00;93528.78;2105589;28;20483;-84
2022/03/02 02:32:29;;;;;;;13.15;7.97;;;;;;;-4.62;100.00;93522.31;2097010;28;20025;-84
2022/03/02 02:33:30;;;;;;;12.82;7.85;;;;;;;-4.48;100.00;93527.34;2097225;28;20020;-84
2022/03/02 02:34:31;;;;;;;11.70;7.80;;;;;;;-4.57;100.00;93522.13;2097194;28;20027;-83
2022/03/02 02:35:33;;;;;;;12.00;7.35;;;;;;;-4.29;100.00;93524.38;2105495;28;20055;-83
2022/03/02 02:36:37;;;;;;;11.68;7.63;;;;;;;-4.47;100.00;93534.88;2097012;28;20020;-84
2022/03/02 02:37:38;;;;;;;12.20;7.90;;;;;;;-4.61;100.00;93524.63;2097255;28;20151;-84
2022/03/02 02:38:39;;;;;;;11.43;7.82;;;;;;;-4.59;100.00;93530.28;2097500;28;20028;-84
2022/03/02 02:39:40;;;;;;;10.27;7.38;;;;;;;-4.68;100.00;93529.53;2105166;28;20169;-82
2022/03/02 02:40:42;;;;;;;10.05;7.50;;;;;;;-4.76;100.00;93522.50;2096908;28;20495;-82
2022/03/02 02:41:43;;;;;;;10.93;8.02;;;;;;;-4.85;100.00;93526.94;2097072;28;20115;-81
2022/03/02 02:42:45;;;;;;;12.15;8.02;;;;;;;-4.62;100.00;93527.53;2105398;28;20531;-83
2022/03/02 02:43:46;;;;;;;13.90;7.90;;;;;;;-4.65;100.00;93522.94;2105786;28;20446;-83
2022/03/02 02:44:56;;;;;;;14.30;8.25;;;;;;;-4.71;100.00;93519.72;2097118;28;20082;-83
2022/03/02 02:45:57;;;;;;;12.82;7.70;;;;;;;-4.78;100.00;93516.84;2102774;28;20028;-85
2022/03/02 02:46:59;;;;;;;11.63;8.10;;;;;;;-4.83;100.00;93519.56;2105192;28;20024;-82
2022/03/02 02:48:00;;;;;;;11.32;8.23;;;;;;;-4.90;100.00;93517.44;2105472;28;20063;-83
2022/03/02 02:49:01;;;;;;;11.70;8.27;;;;;;;-4.94;100.00;93510.56;2113809;28;20020;-83
2022/03/02 02:50:34;;;;;;;10.43;7.55;;;;;;;-5.06;100.00;93513.78;2105301;28;20449;-83
2022/03/02 02:51:42;;;;;;;9.73;7.15;;;;;;;-5.06;100.00;93505.97;2093189;28;20031;-81
2022/03/02 02:52:43;;;;;;;11.80;8.10;;;;;;;-5.03;100.00;93512.41;2089378;28;20490;-82
2022/03/02 02:53:44;;;;;;;12.07;8.00;;;;;;;-5.03;100.00;93518.38;2080372;28;20435;-84
2022/03/02 02:54:49;;;;;;;12.23;8.23;;;;;;;-4.96;100.00;93507.47;2096582;28;20102;-82
2022/03/02 02:55:52;;;;;;;11.75;7.97;;;;;;;-5.00;100.00;93512.56;2096937;28;20090;-84
2022/03/02 02:56:53;;;;;;;11.57;7.85;;;;;;;-4.99;100.00;93511.47;2097010;28;20021;-82
2022/03/02 02:57:55;;;;;;;11.52;7.97;;;;;;;-4.95;100.00;93509.03;2097529;28;20469;-84
2022/03/02 02:58:56;;;;;;;13.25;8.20;;;;;;;-5.00;100.00;93509.16;2080986;28;20069;-84
2022/03/02 02:59:57;;;;;;;11.38;7.40;;;;;;;-5.03;100.00;93509.81;2088636;28;20021;-84
2022/03/02 03:00:58;;;;;;;11.95;7.88;;;;;;;-5.06;100.00;93503.34;2097419;28;20020;-81
2022/03/02 03:01:59;;;;;;;12.40;7.40;;;;;;;-5.07;100.00;93515.63;2105057;28;20024;-84
2022/03/02 03:03:01;;;;;;;11.15;7.70;;;;;;;-4.96;100.00;93517.91;2096680;28;20109;-84
2022/03/02 03:04:03;;;;;;;11.90;7.25;;;;;;;-4.99;100.00;93506.28;2096516;28;20030;-84
2022/03/02 03:05:08;;;;;;;11.52;7.68;;;;;;;-4.96;100.00;93508.28;2097061;28;20098;-83
2022/03/02 03:06:10;;;;;;;11.85;7.68;;;;;;;-5.11;100.00;93495.69;2098892;28;20082;-83
2022/03/02 03:07:10;;;;;;;12.45;7.43;;;;;;;-5.09;100.00;93498.78;2092385;28;20025;-83
2022/03/02 03:08:13;;;;;;;12.55;7.70;;;;;;;-5.16;100.00;93499.22;2105086;28;20488;-83
2022/03/02 03:09:16;;;;;;;11.70;7.22;;;;;;;-5.04;100.00;93500.47;2105472;28;20030;-84
2022/03/02 03:10:18;;;;;;;10.52;7.10;;;;;;;-5.18;100.00;93496.19;2111771;28;20057;-82
2022/03/02 03:11:19;;;;;;;10.60;7.50;;;;;;;-5.18;100.00;93496.19;2093015;28;20048;-83
2022/03/02 03:12:20;;;;;;;12.93;8.20;;;;;;;-5.15;100.00;93492.94;2088037;28;20052;-82
2022/03/02 03:13:21;;;;;;;11.25;8.63;;;;;;;-5.25;100.00;93492.50;2104646;28;20039;-84
2022/03/02 03:14:22;;;;;;;13.45;7.68;;;;;;;-5.35;100.00;93496.94;2096355;28;20385;-83
2022/03/02 03:15:24;;;;;;;12.02;7.80;;;;;;;-5.37;100.00;93493.84;2089283;28;20071;-82
2022/03/02 03:16:24;;;;;;;10.98;7.75;;;;;;;-5.41;100.00;93495.53;2097426;28;20210;-83
2022/03/02 03:17:25;;;;;;;11.95;7.55;;;;;;;-5.46;100.00;93490.47;2089549;28;20163;-84
2022/03/02 03:18:26;;;;;;;13.10;8.77;;;;;;;-5.47;100.00;93493.41;2087340;28;20023;-81
2022/03/02 03:19:27;;;;;;;14.48;8.38;;;;;;;-5.52;100.00;93491.72;2106181;28;20468;-82
2022/03/02 03:20:28;;;;;;;12.15;7.90;;;;;;;-5.55;100.00;93496.75;2106207;28;20444;-85
2022/03/02 03:21:29;;;;;;;12.43;8.45;;;;;;;-5.56;100.00;93493.41;2097333;28;20469;-83
2022/03/02 03:22:30;;;;;;;12.73;7.85;;;;;;;-5.60;100.00;93489.88;2097007;28;20032;-82
2022/03/02 03:23:31;;;;;;;12.35;8.15;;;;;;;-5.64;100.00;93492.31;2097981;28;20054;-81
2022/03/02 03:24:34;;;;;;;15.25;8.15;;;;;;;-5.72;100.00;93484.50;2106333;28;20633;-82
2022/03/02 03:25:35;;;;;;;11.90;7.25;;;;;;;-5.69;100.00;93487.25;2100779;28;20020;-81
2022/03/02 03:26:36;;;;;;;12.07;8.25;;;;;;;-5.60;100.00;93487.25;2111940;28;20106;-83
2022/03/02 03:27:37;;;;;;;12.05;8.10;;;;;;;-5.63;100.00;93485.25;2091435;28;20118;-80
2022/03/02 03:28:38;;;;;;;11.75;7.60;;;;;;;-5.69;100.00;93483.88;2101890;28;20117;-82
2022/03/02 03:29:39;;;;;;;12.63;8.13;;;;;;;-5.60;100.00;93482.81;2106323;28;20031;-81
2022/03/02 03:30:40;;;;;;;11.10;8.02;;;;;;;-5.51;100.00;93480.22;2106514;28;20024;-82
2022/03/02 03:31:42;;;;;;;11.75;7.75;;;;;;;-5.55;100.00;93481.13;2097634;28;20103;-82
2022/03/02 03:32:43;;;;;;;13.73;8.85;;;;;;;-5.57;100.00;93484.81;2089735;28;20021;-81
2022/03/02 03:33:45;;;;;;;13.07;7.93;;;;;;;-5.62;100.00;93484.97;2097839;28;20035;-81
2022/03/02 03:34:46;;;;;;;12.88;8.20;;;;;;;-5.66;100.00;93494.47;2097858;28;20051;-83
2022/03/02 03:35:47;;;;;;;10.60;7.22;;;;;;;-5.66;100.00;93497.06;2111873;28;20035;-81
2022/03/02 03:36:48;;;;;;;11.65;7.75;;;;;;;-5.59;100.00;93491.41;2114636;28;20046;-81
2022/03/02 03:37:49;;;;;;;17.13;7.95;;;;;;;-5.64;100.00;93494.91;2098056;28;20444;-81
2022/03/02 03:38:50;;;;;;;10.63;7.47;;;;;;;-5.61;100.00;93494.31;2089444;28;20124;-80
2022/03/02 03:39:51;;;;;;;12.80;8.13;;;;;;;-5.73;100.00;93499.34;2089628;28;20363;-81
2022/03/02 03:40:52;;;;;;;10.82;7.65;;;;;;;-5.61;100.00;93498.75;2089922;28;20036;-81
2022/03/02 03:41:55;;;;;;;11.88;7.93;;;;;;;-5.68;100.00;93501.78;2102346;28;20393;-81
2022/03/02 03:42:56;;;;;;;11.60;7.53;;;;;;;-5.69;100.00;93500.28;2098067;28;20028;-81
2022/03/02 03:43:57;;;;;;;11.63;7.40;;;;;;;-5.68;100.00;93501.03;2101959;28;20064;-82
2022/03/02 03:44:58;;;;;;;10.25;6.65;;;;;;;-5.64;100.00;93499.34;2086032;28;20020;-82
2022/03/02 03:45:59;;;;;;;10.13;7.45;;;;;;;-5.71;100.00;93494.59;2089822;28;20497;-84
2022/03/02 03:47:00;;;;;;;10.77;7.13;;;;;;;-5.80;100.00;93506.81;2089693;28;20672;-80
2022/03/02 03:48:01;;;;;;;10.48;7.25;;;;;;;-5.78;100.00;93496.88;2084867;28;20108;-83
2022/03/02 03:49:03;;;;;;;12.63;7.70;;;;;;;-5.77;100.00;93501.00;2081884;28;20021;-84
2022/03/02 03:50:04;;;;;;;11.13;7.22;;;;;;;-5.87;100.00;93498.72;2089696;28;20051;-82
2022/03/02 03:51:06;;;;;;;12.73;7.43;;;;;;;-5.79;100.00;93494.56;2089643;28;20028;-82
2022/03/02 03:52:08;;;;;;;11.50;7.38;;;;;;;-5.76;100.00;93502.53;2099531;28;20083;-82
2022/03/02 03:53:10;;;;;;;10.85;7.63;;;;;;;-5.83;100.00;93487.38;2097973;28;20024;-81
2022/03/02 03:54:11;;;;;;;12.30;8.00;;;;;;;-5.84;100.00;93493.66;2106238;28;20073;-83
2022/03/02 03:55:13;;;;;;;13.40;8.07;;;;;;;-5.83;100.00;93486.63;2099831;28;20540;-82
2022/03/02 03:56:14;;;;;;;12.23;7.38;;;;;;;-5.72;100.00;93487.09;2097912;28;20020;-84
2022/03/02 03:57:15;;;;;;;11.85;7.82;;;;;;;-5.82;100.00;93491.53;2091616;28;20105;-81
2022/03/02 03:58:16;;;;;;;11.25;7.68;;;;;;;-5.91;100.00;93485.53;2089725;28;20017;-84
2022/03/02 03:59:17;;;;;;;14.07;7.90;;;;;;;-5.98;100.00;93485.22;2094835;28;20028;-84
2022/03/02 04:00:19;;;;;;;13.05;7.72;;;;;;;-6.02;100.00;93481.69;2105210;28;20024;-82
2022/03/02 04:01:21;;;;;;;14.25;7.68;;;;;;;-6.05;100.00;93478.97;2114705;28;20024;-85
2022/03/02 04:02:24;;;;;;;12.10;7.65;;;;;;;-6.01;100.00;93479.84;2114535;28;20018;-82
2022/03/02 04:03:25;;;;;;;10.13;7.65;;;;;;;-6.05;100.00;93482.31;2092374;28;20044;-84
2022/03/02 04:04:26;;;;;;;11.43;7.47;;;;;;;-6.05;100.00;93471.91;2097834;28;20326;-83
2022/03/02 04:05:27;;;;;;;11.82;7.95;;;;;;;-5.99;100.00;93477.72;2098010;28;20032;-83
2022/03/02 04:06:28;;;;;;;12.68;7.60;;;;;;;-6.03;100.00;93479.41;2097465;28;20715;-83
2022/03/02 04:07:29;;;;;;;11.52;7.65;;;;;;;-6.05;100.00;93473.75;2106281;28;20461;-84
2022/03/02 04:08:30;;;;;;;12.15;7.40;;;;;;;-6.06;100.00;93467.75;2106339;28;20020;-82
2022/03/02 04:09:31;;;;;;;12.27;8.20;;;;;;;-6.08;100.00;93477.72;2106210;28;20047;-83
2022/03/02 04:10:32;;;;;;;12.20;8.10;;;;;;;-6.02;100.00;93473.13;2089428;28;20120;-83
2022/03/02 04:11:33;;;;;;;13.75;7.93;;;;;;;-6.14;100.00;93464.09;2089249;28;20214;-83
2022/03/02 04:12:35;;;;;;;11.68;7.75;;;;;;;-6.27;100.00;93472.78;2097747;28;20028;-85
2022/03/02 04:13:36;;;;;;;10.52;8.13;;;;;;;-6.17;100.00;93467.28;2097929;28;20032;-83
2022/03/02 04:14:37;;;;;;;11.57;7.15;;;;;;;-6.07;100.00;93470.66;2112930;28;20034;-81
2022/03/02 04:15:38;;;;;;;12.07;7.85;;;;;;;-6.07;100.00;93471.44;2097543;28;20052;-82
2022/03/02 04:16:39;;;;;;;10.38;7.32;;;;;;;-6.03;100.00;93469.75;2089337;28;20021;-81
2022/03/02 04:17:40;;;;;;;11.73;8.13;;;;;;;-6.10;100.00;93462.41;2097772;28;20111;-81
2022/03/02 04:18:41;;;;;;;12.60;8.45;;;;;;;-6.06;100.00;93464.38;2097758;28;20020;-83
2022/03/02 04:19:42;;;;;;;11.23;7.93;;;;;;;-6.06;100.00;93459.94;2089795;28;20462;-82
2022/03/02 04:20:43;;;;;;;10.85;7.88;;;;;;;-6.09;100.00;93455.38;2096060;28;20081;-85
2022/03/02 04:21:44;;;;;;;10.95;7.43;;;;;;;-6.14;100.00;93461.47;2091232;28;20025;-83
2022/03/02 04:22:46;;;;;;;10.80;7.68;;;;;;;-6.22;100.00;93454.41;2089727;28;20063;-82
2022/03/02 04:23:47;;;;;;;13.85;7.82;;;;;;;-6.20;100.00;93451.50;2089765;28;20076;-81
2022/03/02 04:24:48;;;;;;;9.07;6.63;;;;;;;-6.16;100.00;93457.63;2084403;28;20371;-82
2022/03/02 04:25:49;;;;;;;10.07;7.30;;;;;;;-6.22;100.00;93459.63;2105980;28;20032;-82
2022/03/02 04:26:50;;;;;;;12.13;7.38;;;;;;;-6.22;100.00;93454.41;2114403;28;20057;-80
2022/03/02 04:27:51;;;;;;;12.32;7.80;;;;;;;-6.21;100.00;93457.78;2107946;28;20093;-81
2022/03/02 04:28:52;;;;;;;13.27;7.45;;;;;;;-6.24;100.00;93458.38;2106132;28;20047;-82
2022/03/02 04:29:53;;;;;;;10.18;7.18;;;;;;;-6.18;100.00;93462.38;2106235;28;20020;-82
2022/03/02 04:30:54;;;;;;;10.65;6.93;;;;;;;-6.19;100.00;93466.84;2101530;28;20032;-80
2022/03/02 04:31:55;;;;;;;10.27;7.03;;;;;;;-6.27;100.00;93453.81;2097774;28;20393;-83
2022/03/02 04:32:58;;;;;;;11.35;7.40;;;;;;;-6.27;100.00;93459.75;2106135;28;20195;-81
2022/03/02 04:33:59;;;;;;;12.05;7.57;;;;;;;-6.23;100.00;93454.69;2106377;28;20082;-80
2022/03/02 04:35:00;;;;;;;9.63;7.32;;;;;;;-6.32;100.00;93459.91;2106168;28;20030;-82
2022/03/02 04:36:01;;;;;;;11.05;7.40;;;;;;;-6.26;100.00;93461.28;2114556;28;20031;-81
2022/03/02 04:37:03;;;;;;;9.35;7.13;;;;;;;-6.24;100.00;93458.38;2114227;28;20023;-82
2022/03/02 04:38:04;;;;;;;11.45;7.57;;;;;;;-6.23;100.00;93455.50;2106145;28;20028;-82
2022/03/02 04:39:05;;;;;;;11.05;7.30;;;;;;;-6.22;100.00;93453.66;2114448;28;20020;-83
2022/03/02 04:40:08;;;;;;;12.75;7.55;;;;;;;-6.29;100.00;93461.13;2097791;28;20111;-83
2022/03/02 04:41:10;;;;;;;15.90;7.85;;;;;;;-6.37;100.00;93462.63;2106458;28;20046;-82
2022/03/02 04:42:11;;;;;;;12.45;7.55;;;;;;;-6.38;100.00;93456.66;2105939;28;20043;-83
2022/03/02 04:43:14;;;;;;;14.73;8.50;;;;;;;-6.46;100.00;93459.22;2097718;28;20066;-82
2022/03/02 04:44:15;;;;;;;11.57;7.82;;;;;;;-6.52;100.00;93447.44;2098034;28;20469;-84